Time;durP1;ratioP1;P1;durP2;ratioP2;P2;SDS_P1;SDS_P2;PMS_P1;PMS_P2;Temp;Humidity;BMP_temperature;BMP_pressure;BME280_temperature;BME280_humidity;BME280_pressure;Samples;Min_cycle;Max_cycle;Signal;HPM_P1;HPM_P2
2024/02/03 00:02:44;;;;;;;78.85;37.70;;;;;;;2.58;78.73;100318.31;6179559;23;20017;-96
2024/02/03 00:38:08;;;;;;;65.97;36.03;;;;;;;2.20;79.70;100327.41;6206384;22;20012;-96
2024/02/03 00:40:46;;;;;;;63.53;35.05;;;;;;;1.97;79.52;100308.16;6146771;23;20325;-96
2024/02/03 00:46:08;;;;;;;77.53;37.05;;;;;;;2.00;79.48;100302.47;6233984;22;20068;-97
2024/02/03 00:48:38;;;;;;;64.97;34.70;;;;;;;2.02;79.77;100301.25;6189867;23;20037;-96
2024/02/03 01:03:33;;;;;;;64.72;35.72;;;;;;;2.27;78.54;100305.38;6247226;22;20051;-96
2024/02/03 01:05:59;;;;;;;60.40;35.80;;;;;;;2.16;78.74;100296.09;6181927;23;20043;-96
2024/02/03 01:08:25;;;;;;;65.20;37.15;;;;;;;2.27;78.54;100302.72;6179706;23;19996;-96
2024/02/03 01:10:58;;;;;;;64.65;37.17;;;;;;;2.21;79.12;100299.81;6180334;23;20008;-96
2024/02/03 01:13:24;;;;;;;61.95;36.60;;;;;;;2.14;78.56;100306.09;6184517;23;20008;-96
2024/02/03 01:16:07;;;;;;;56.42;34.88;;;;;;;2.09;78.68;100311.13;6181738;23;20000;-96
2024/02/03 01:18:53;;;;;;;66.25;33.78;;;;;;;2.07;78.68;100297.22;6262068;23;20027;-96
2024/02/03 01:21:25;;;;;;;60.80;36.08;;;;;;;2.19;78.42;100315.13;6202864;23;20001;-96
2024/02/03 03:09:25;;;;;;;36.97;23.55;;;;;;;0.75;79.58;100259.16;6215473;22;20739;-96
2024/02/03 03:11:56;;;;;;;40.60;24.80;;;;;;;0.70;79.38;100237.66;6145813;23;20012;-96
2024/02/03 03:14:25;;;;;;;41.28;24.58;;;;;;;0.79;79.19;100238.41;6173772;23;20063;-96
2024/02/03 03:17:53;;;;;;;42.83;25.83;;;;;;;0.84;78.97;100224.59;6151460;23;20004;-96
2024/02/03 03:21:07;;;;;;;42.03;24.83;;;;;;;0.79;78.54;100203.94;6146214;23;19994;-96
2024/02/03 03:24:20;;;;;;;;;;;;;;;;;;;;;
2024/02/03 03:26:56;;;;;;;41.90;24.08;;;;;;;1.12;79.42;100230.88;6116800;23;20001;-96
2024/02/03 05:34:06;;;;;;;34.47;22.05;;;;;;;0.31;78.28;100148.69;6205441;22;20432;-96
2024/02/03 05:36:31;;;;;;;34.35;21.35;;;;;;;0.36;78.07;100180.72;6145150;23;20012;-95
2024/02/03 05:38:57;;;;;;;28.40;20.00;;;;;;;0.21;77.72;100161.34;6144387;23;20008;-96
2024/02/03 05:41:23;;;;;;;37.30;20.77;;;;;;;0.16;77.79;100164.53;6144795;23;20009;-95
2024/02/03 05:43:52;;;;;;;34.00;20.60;;;;;;;0.23;77.75;100162.00;6147120;23;20103;-96
2024/02/03 05:46:17;;;;;;;30.05;18.17;;;;;;;0.36;77.11;100153.41;6150421;23;20000;-96
2024/02/03 05:48:46;;;;;;;30.05;19.67;;;;;;;0.44;77.36;100153.31;6149770;23;20151;-95
2024/02/03 05:51:12;;;;;;;36.03;20.02;;;;;;;0.41;77.68;100153.69;6150644;23;20008;-96
2024/02/03 05:53:52;;;;;;;32.22;19.65;;;;;;;0.46;77.02;100161.06;6149119;23;20073;-96
2024/02/03 05:56:21;;;;;;;31.08;19.70;;;;;;;0.31;77.69;100158.41;6150097;23;20001;-96
2024/02/03 05:58:47;;;;;;;32.88;20.70;;;;;;;0.19;77.31;100152.78;6149044;23;19993;-96
2024/02/03 06:01:25;;;;;;;37.72;21.40;;;;;;;0.30;77.02;100189.41;6148662;23;20004;-96
2024/02/03 06:04:08;;;;;;;32.97;21.30;;;;;;;0.28;77.43;100169.41;6178005;23;20000;-96
2024/02/03 06:06:41;;;;;;;36.00;21.23;;;;;;;0.35;77.09;100167.66;6148854;23;20009;-96
2024/02/03 06:09:10;;;;;;;34.03;21.38;;;;;;;0.25;77.12;100160.00;6153823;23;19992;-96
2024/02/03 06:11:36;;;;;;;33.38;21.25;;;;;;;0.19;77.78;100150.94;6173764;23;20000;-96
2024/02/03 06:14:08;;;;;;;36.10;23.38;;;;;;;0.20;76.93;100157.06;6147008;23;20000;-96
2024/02/03 06:16:33;;;;;;;32.20;21.27;;;;;;;0.12;77.51;100160.59;6147008;23;20000;-96
2024/02/03 06:19:05;;;;;;;41.33;24.08;;;;;;;0.30;77.25;100180.63;6151372;23;20035;-96
2024/02/03 06:21:49;;;;;;;38.40;22.95;;;;;;;0.16;77.22;100161.88;6152756;23;20001;-96
2024/02/03 06:44:23;;;;;;;53.22;29.70;;;;;;;0.35;77.19;100165.84;6220968;22;20025;-96
2024/02/03 06:46:49;;;;;;;43.65;27.40;;;;;;;0.41;77.47;100164.28;6171476;23;20008;-96
2024/02/03 06:49:20;;;;;;;45.10;26.33;;;;;;;0.44;77.44;100157.81;6144183;23;19993;-96
2024/02/03 06:51:48;;;;;;;56.05;26.75;;;;;;;0.57;77.91;100176.53;6147394;23;20039;-96
2024/02/03 06:54:17;;;;;;;39.33;26.10;;;;;;;0.70;77.35;100155.50;6145236;23;20004;-95
2024/02/03 06:56:42;;;;;;;43.92;27.38;;;;;;;0.81;77.12;100159.53;6145041;23;20005;-96
2024/02/03 06:59:10;;;;;;;43.40;27.10;;;;;;;0.91;77.17;100160.03;6146567;23;20000;-95
2024/02/03 07:01:36;;;;;;;42.70;28.17;;;;;;;1.10;77.03;100166.59;6147005;23;20000;-96
2024/02/03 07:04:04;;;;;;;43.75;26.70;;;;;;;1.18;77.67;100158.53;6145313;23;20004;-96
2024/02/03 07:06:30;;;;;;;43.20;25.70;;;;;;;1.15;78.29;100144.81;6146912;23;20511;-96
2024/02/03 07:08:58;;;;;;;42.22;26.27;;;;;;;1.36;77.93;100167.88;6171194;23;19997;-96
2024/02/03 08:18:34;;;;;;;44.08;27.20;;;;;;;3.70;71.36;100095.44;6189681;22;21171;31
2024/02/03 08:21:00;;;;;;;37.90;26.20;;;;;;;4.02;70.78;100123.06;6217372;23;20021;-96
2024/02/03 08:23:28;;;;;;;41.38;24.92;;;;;;;4.00;69.56;100107.25;6146911;23;20024;-96
2024/02/03 08:26:08;;;;;;;36.00;23.70;;;;;;;4.04;68.69;100094.34;6170230;23;20005;-96
2024/02/03 08:29:11;;;;;;;;;;;;;;;;;;;;;
2024/02/03 08:31:48;;;;;;;31.23;21.48;;;;;;;4.41;66.51;100102.69;6194760;23;20028;-94
2024/02/03 08:34:14;;;;;;;36.67;22.65;;;;;;;4.62;67.13;100093.56;6170834;23;20459;-95
2024/02/03 08:36:46;;;;;;;36.88;25.02;;;;;;;4.75;66.55;100103.38;6148035;23;20000;-95
2024/02/03 08:39:34;;;;;;;35.33;22.27;;;;;;;4.81;66.31;100082.00;6147339;23;20434;-95
2024/02/03 08:42:01;;;;;;;32.50;23.48;;;;;;;5.00;66.52;100096.28;6151281;23;20012;-96
2024/02/03 08:44:39;;;;;;;39.05;24.17;;;;;;;5.17;66.25;100104.59;6171596;23;20008;-96
2024/02/03 08:47:11;;;;;;;30.55;21.08;;;;;;;5.28;65.43;100108.44;6198904;23;20001;-96
2024/02/03 08:49:54;;;;;;;33.00;20.42;;;;;;;5.35;64.09;100087.81;6125605;23;20007;-96
2024/02/03 08:52:38;;;;;;;31.05;20.05;;;;;;;5.39;64.16;100094.38;6197438;23;20004;-96
2024/02/03 08:55:17;;;;;;;;;;;;;;;;;;;;;
2024/02/03 08:57:43;;;;;;;41.25;25.50;;;;;;;5.40;70.08;100114.72;6176326;23;20016;-96
2024/02/03 09:00:15;;;;;;;51.83;29.92;;;;;;;5.46;69.28;100097.03;6143540;23;20013;-96
2024/02/03 09:02:44;;;;;;;43.30;27.23;;;;;;;5.58;69.32;100084.59;6170647;23;20004;-96
2024/02/03 09:08:57;;;;;;;;;;;;;;;;;;;;;
2024/02/03 09:11:51;;;;;;;40.73;25.00;;;;;;;5.65;66.63;100076.53;6055383;23;20019;-96
2024/02/03 09:18:05;;;;;;;34.90;23.38;;;;;;;5.62;65.81;100093.81;6056841;23;20040;-96
2024/02/03 10:06:06;;;;;;;34.63;20.38;;;;;;;7.11;62.55;100000.94;6219899;22;20020;-96
2024/02/03 10:08:31;;;;;;;28.05;15.15;;;;;;;7.33;61.22;100020.78;6171542;23;20009;-95
2024/02/03 10:11:00;;;;;;;22.98;12.45;;;;;;;7.23;59.55;99977.69;6143794;23;20004;-95
2024/02/03 10:13:28;;;;;;;17.80;9.48;;;;;;;7.51;57.94;99981.53;6171651;23;20011;-96
2024/02/03 10:16:03;;;;;;;18.10;9.02;;;;;;;7.71;58.62;99978.50;6144603;23;20036;-96
2024/02/03 10:18:36;;;;;;;13.05;7.32;;;;;;;7.94;57.19;99980.31;6144268;23;20071;-96
2024/02/03 10:21:05;;;;;;;9.93;5.22;;;;;;;7.86;54.35;99958.22;6138438;22;20017;-96
2024/02/03 10:26:19;;;;;;;;;;;;;;;;;;;;;
2024/02/03 10:33:58;;;;;;;7.60;3.80;;;;;;;8.27;50.96;99937.53;6205104;22;20051;-96
2024/02/03 10:36:40;;;;;;;;;;;;;;;;;;;;;
2024/02/03 11:28:48;;;;;;;6.35;2.75;;;;;;;8.36;48.55;99832.53;6215082;22;20044;-96
2024/02/03 11:32:14;;;;;;;7.43;2.80;;;;;;;8.68;48.59;99854.31;6203103;23;20024;-96
2024/02/03 11:41:00;;;;;;;7.35;2.65;;;;;;;8.59;49.11;99823.53;6224135;22;20047;-96
2024/02/03 11:44:32;;;;;;;7.63;2.85;;;;;;;8.79;48.34;99823.84;6160181;23;20033;-96
2024/02/03 11:46:57;;;;;;;6.60;2.95;;;;;;;8.67;48.59;99815.06;6155022;23;20017;-95
2024/02/03 11:49:23;;;;;;;15.80;3.65;;;;;;;8.79;49.59;99815.81;6130914;23;20060;-96
2024/02/03 11:51:48;;;;;;;14.10;3.38;;;;;;;8.94;48.32;99825.16;6130804;23;20085;-96
2024/02/03 11:54:17;;;;;;;5.68;3.13;;;;;;;8.95;47.47;99795.38;6107274;23;20009;-96
2024/02/03 11:56:42;;;;;;;8.73;3.08;;;;;;;9.07;48.05;99793.38;6133787;23;20013;-94
2024/02/03 11:59:34;;;;;;;4.38;2.38;;;;;;;9.12;46.81;99798.00;6135342;23;20060;-96
2024/02/03 12:02:16;;;;;;;12.68;5.68;;;;;;;9.13;47.59;99793.44;6139450;23;19985;-96
2024/02/03 12:04:56;;;;;;;;;;;;;;;;;;;;;
2024/02/03 12:07:39;;;;;;;;;;;;;;;;;;;;;
2024/02/03 12:10:28;;;;;;;;;;;;;;;;;;;;;
2024/02/03 12:19:21;;;;;;;5.47;3.10;;;;;;;10.10;46.24;99755.00;6172810;23;20076;-96
2024/02/03 12:21:59;;;;;;;5.00;2.80;;;;;;;10.25;44.84;99750.81;6122364;23;20237;-96
2024/02/03 12:24:33;;;;;;;7.07;3.85;;;;;;;10.40;45.85;99750.19;6142950;23;20009;-96
2024/02/03 12:27:03;;;;;;;8.40;4.18;;;;;;;10.50;45.28;99763.72;6139753;23;20376;-96
2024/02/03 12:29:58;;;;;;;;;;;;;;;;;;;;;
2024/02/03 12:32:55;;;;;;;;;;;;;;;;;;;;;
2024/02/03 12:35:56;;;;;;;7.40;3.80;;;;;;;10.36;44.87;99735.59;6151714;23;20024;-96
2024/02/03 12:38:40;;;;;;;11.48;4.25;;;;;;;10.54;45.46;99755.91;6112864;23;20029;-96
2024/02/03 12:41:15;;;;;;;8.18;4.05;;;;;;;10.41;45.77;99736.44;6063057;23;20006;-96
2024/02/03 12:43:40;;;;;;;9.65;4.10;;;;;;;10.62;46.98;99741.97;6084093;23;20110;-96
2024/02/03 12:46:09;;;;;;;10.45;4.15;;;;;;;10.67;44.56;99737.44;6082099;23;20078;-96
2024/02/03 12:48:43;;;;;;;7.25;4.20;;;;;;;10.71;44.26;99737.72;6061036;23;20002;-96
2024/02/03 12:51:21;;;;;;;8.85;3.58;;;;;;;10.68;46.03;99732.84;6087675;23;20033;-96
2024/02/03 12:53:47;;;;;;;9.05;3.92;;;;;;;10.71;45.07;99726.97;6091555;23;20121;-96
2024/02/03 12:56:17;;;;;;;12.93;4.30;;;;;;;10.67;45.18;99726.66;6065525;23;20006;-96
2024/02/03 12:59:13;;;;;;;6.35;3.60;;;;;;;10.59;44.33;99726.34;6090226;23;20006;-96
2024/02/03 13:02:02;;;;;;;5.80;3.30;;;;;;;10.67;44.69;99752.78;6090947;23;20058;-96
2024/02/03 13:04:40;;;;;;;6.10;2.67;;;;;;;10.58;45.70;99735.47;6147323;23;20079;-96
2024/02/03 13:07:06;;;;;;;8.38;3.22;;;;;;;10.43;46.34;99723.53;6139943;23;20001;-95
2024/02/03 13:09:38;;;;;;;3.80;2.45;;;;;;;10.42;45.48;99721.13;6143511;23;19997;-96
2024/02/03 13:12:13;;;;;;;6.95;3.33;;;;;;;10.47;45.76;99734.59;6167980;23;20006;-96
2024/02/03 13:14:43;;;;;;;6.10;3.15;;;;;;;10.33;45.39;99715.38;6141668;23;20005;-96
2024/02/03 13:17:09;;;;;;;8.07;5.22;;;;;;;10.36;46.14;99727.53;6115598;23;20045;-96
2024/02/03 13:19:36;;;;;;;7.13;2.83;;;;;;;10.30;46.17;99721.28;6113792;23;20064;-96
2024/02/03 13:22:04;;;;;;;11.63;3.50;;;;;;;10.21;46.25;99720.94;6140409;23;20440;-96
2024/02/03 13:24:35;;;;;;;6.30;3.15;;;;;;;10.17;46.13;99716.28;6117107;23;20080;-96
2024/02/03 13:27:01;;;;;;;8.18;3.95;;;;;;;10.17;46.44;99709.06;6138811;23;20013;-96
2024/02/03 13:29:32;;;;;;;6.22;3.45;;;;;;;10.35;46.24;99725.91;6113506;23;20081;-96
2024/02/03 13:31:58;;;;;;;6.03;3.40;;;;;;;10.06;46.20;99692.00;6122306;23;20008;-96
2024/02/03 13:34:53;;;;;;;5.88;3.17;;;;;;;10.17;46.51;99694.78;6121660;23;20021;-96
2024/02/03 13:37:19;;;;;;;6.00;3.08;;;;;;;10.17;46.21;99684.00;6109869;23;20002;-96
2024/02/03 13:39:58;;;;;;;4.22;2.20;;;;;;;10.21;45.59;99694.03;6061158;23;20060;-96
2024/02/03 13:42:53;;;;;;;4.95;2.67;;;;;;;10.13;45.91;99681.03;6062273;23;20421;-96
2024/02/03 13:45:29;;;;;;;4.25;2.85;;;;;;;10.29;46.00;99711.56;6079471;23;20022;-96
2024/02/03 13:48:01;;;;;;;6.30;2.90;;;;;;;10.16;45.97;99683.22;6083930;23;20002;-96
2024/02/03 13:50:52;;;;;;;;;;;;;;;10.21;46.41;99694.03;6061302;23;20037;-96
2024/02/03 14:44:11;;;;;;;14.52;5.35;;;;;;;9.44;49.69;99633.38;6193991;23;20027;-96
2024/02/03 14:46:43;;;;;;;13.27;6.55;;;;;;;9.42;49.74;99635.50;6167383;23;20112;-96
2024/02/03 14:49:09;;;;;;;15.32;7.10;;;;;;;9.42;50.25;99640.88;6167495;22;20001;-96
2024/02/03 14:51:43;;;;;;;10.30;5.32;;;;;;;9.29;49.39;99626.78;6145152;23;20339;-96
2024/02/03 14:54:45;;;;;;;;;;;;;;;;;;;;;
2024/02/03 14:59:58;;;;;;;11.88;6.10;;;;;;;9.38;49.28;99651.34;6224311;22;20017;-96
2024/02/03 15:02:45;;;;;;;13.07;6.17;;;;;;;9.37;50.02;99646.22;6198873;23;20067;-96
2024/02/03 15:05:11;;;;;;;20.13;7.30;;;;;;;9.39;50.33;99642.22;6172531;23;20028;-96
2024/02/03 15:07:46;;;;;;;20.42;7.93;;;;;;;9.49;50.54;99655.75;6192442;23;20001;-96
2024/02/03 15:10:24;;;;;;;15.57;7.20;;;;;;;9.41;50.63;99652.72;6169848;23;20005;-96
2024/02/03 15:12:50;;;;;;;14.73;5.85;;;;;;;9.34;50.17;99655.63;6169853;23;20015;-95
2024/02/03 15:15:34;;;;;;;12.65;5.43;;;;;;;9.37;49.67;99651.59;6170886;23;19996;-96
2024/02/03 15:25:00;;;;;;;10.25;4.38;;;;;;;9.56;49.51;99673.56;6186669;23;20015;-96
2024/02/03 15:27:31;;;;;;;8.85;4.22;;;;;;;9.48;49.35;99675.66;6170016;23;20005;-96
2024/02/03 15:30:12;;;;;;;12.15;4.68;;;;;;;9.39;50.09;99663.72;6170253;23;20316;-96
2024/02/03 15:32:40;;;;;;;9.93;5.03;;;;;;;9.38;50.02;99667.47;6175249;23;20028;-96
2024/02/03 15:35:09;;;;;;;9.88;5.20;;;;;;;9.25;50.75;99673.22;6171177;23;20231;-96
2024/02/03 15:37:37;;;;;;;8.90;5.05;;;;;;;9.23;51.23;99678.03;6171782;23;19996;-96
2024/02/03 15:40:12;;;;;;;11.00;5.68;;;;;;;9.16;51.58;99683.63;6171693;23;20012;-96
2024/02/03 15:42:47;;;;;;;15.85;6.53;;;;;;;8.96;52.72;99664.56;6171644;23;20004;-96
2024/02/03 15:48:36;;;;;;;14.27;7.18;;;;;;;8.78;52.51;99669.22;6222725;23;20004;-96
2024/02/03 15:51:02;;;;;;;23.58;7.38;;;;;;;8.84;52.20;99678.94;6169806;23;20079;-96
2024/02/03 15:53:28;;;;;;;25.42;8.48;;;;;;;8.69;52.98;99670.69;6171113;23;20103;-96
2024/02/03 15:56:19;;;;;;;23.10;8.63;;;;;;;8.58;53.62;99666.25;6169636;23;20004;-96
2024/02/03 15:58:48;;;;;;;27.58;9.38;;;;;;;8.41;54.70;99669.78;6192795;23;20013;-96
2024/02/03 16:01:19;;;;;;;25.75;9.70;;;;;;;8.32;55.29;99673.91;6168191;23;20013;-96
2024/02/03 16:03:45;;;;;;;29.23;11.80;;;;;;;8.18;55.44;99672.63;6171784;23;20014;-96
2024/02/03 16:06:11;;;;;;;23.80;11.48;;;;;;;8.09;56.31;99669.53;6193319;23;20000;-96
2024/02/03 16:08:52;;;;;;;22.85;10.48;;;;;;;8.08;56.76;99695.53;6169276;23;20131;-96
2024/02/03 16:18:34;;;;;;;35.70;15.85;;;;;;;7.66;57.95;99706.66;6178754;23;20059;-96
2024/02/03 16:21:00;;;;;;;41.90;15.70;;;;;;;7.59;58.55;99705.16;6195492;23;20017;-96
2024/02/03 16:23:26;;;;;;;42.90;17.25;;;;;;;7.54;58.55;99708.56;6168326;23;20001;-96
2024/02/03 16:25:52;;;;;;;44.65;19.30;;;;;;;7.43;58.45;99701.41;6169286;23;20044;-96
2024/02/03 16:28:33;;;;;;;45.17;18.80;;;;;;;7.33;58.77;99707.38;6199969;23;20027;-96
2024/02/03 16:31:05;;;;;;;40.67;16.95;;;;;;;7.21;58.94;99693.22;6166057;23;20011;-96
2024/02/03 16:33:38;;;;;;;36.83;18.17;;;;;;;7.20;59.14;99697.75;6169512;23;20339;-96
2024/02/03 16:36:07;;;;;;;37.22;17.17;;;;;;;7.12;59.59;99703.50;6171252;23;20004;-96
2024/02/03 16:38:33;;;;;;;38.35;19.55;;;;;;;7.14;59.65;99713.94;6169742;23;20004;-96
2024/02/03 16:40:59;;;;;;;37.22;18.42;;;;;;;7.04;59.80;99699.31;6168243;23;20001;-96
2024/02/03 16:43:25;;;;;;;38.03;17.77;;;;;;;7.12;60.12;99716.03;6174330;23;20084;-96
2024/02/03 16:45:54;;;;;;;31.38;16.55;;;;;;;7.08;60.19;99724.56;6172262;23;20430;-96
2024/02/03 16:48:23;;;;;;;30.77;17.27;;;;;;;6.91;60.35;99699.59;6170550;23;20005;-96
2024/02/03 16:50:49;;;;;;;25.33;16.40;;;;;;;6.98;60.13;99715.50;6169854;23;20079;-96
2024/02/03 16:53:20;;;;;;;28.67;16.15;;;;;;;6.77;60.66;99699.03;6166827;23;20007;-96
2024/02/03 16:55:49;;;;;;;39.38;20.17;;;;;;;6.88;60.57;99721.47;6166853;23;20467;-96
2024/02/03 16:58:24;;;;;;;55.05;26.35;;;;;;;6.78;60.83;99708.66;6191035;23;20000;-96
2024/02/03 17:00:50;;;;;;;49.92;25.33;;;;;;;6.68;60.87;99701.25;6167888;23;20025;-96
2024/02/03 17:03:20;;;;;;;39.17;20.23;;;;;;;6.64;61.19;99701.94;6168509;23;20004;-96
2024/02/03 17:06:02;;;;;;;38.55;21.00;;;;;;;6.57;61.26;99698.56;6169064;23;20004;-96
2024/02/03 17:09:00;;;;;;;30.27;19.30;;;;;;;6.72;61.42;99724.84;6193145;23;20004;-96
2024/02/03 17:11:36;;;;;;;28.30;17.42;;;;;;;6.54;61.59;99701.72;6193770;23;20007;-96
2024/02/03 17:14:02;;;;;;;37.67;19.40;;;;;;;6.56;61.55;99711.16;6169067;23;20000;-96
2024/02/03 17:16:31;;;;;;;30.63;17.88;;;;;;;6.47;61.94;99708.00;6169243;23;20007;-96
2024/02/03 17:19:05;;;;;;;35.15;20.35;;;;;;;6.34;61.89;99689.50;6169975;23;20004;-96
2024/02/03 17:21:34;;;;;;;37.67;19.15;;;;;;;6.31;61.98;99714.06;6194169;23;20070;-96
2024/02/03 17:24:06;;;;;;;46.13;20.98;;;;;;;6.34;62.85;99715.44;6194631;23;20059;-96
2024/02/03 17:26:43;;;;;;;47.58;25.23;;;;;;;6.26;62.70;99714.72;6170750;23;20028;-96
2024/02/03 17:29:11;;;;;;;43.58;23.83;;;;;;;6.22;62.85;99724.25;6173352;23;19997;-95
2024/02/03 17:31:42;;;;;;;44.95;23.35;;;;;;;6.07;63.49;99718.56;6199261;23;20004;-96
2024/02/03 17:34:20;;;;;;;43.65;24.77;;;;;;;6.07;63.03;99715.88;6176341;23;19997;-96
2024/02/03 17:36:49;;;;;;;40.28;21.48;;;;;;;6.07;63.29;99716.69;6198884;23;20060;-96
2024/02/03 17:39:26;;;;;;;48.65;23.00;;;;;;;5.98;63.61;99711.94;6174099;23;20008;-96
2024/02/03 17:42:00;;;;;;;51.22;24.10;;;;;;;6.12;63.75;99737.41;6197577;23;20059;-96
2024/02/03 17:44:47;;;;;;;;;;;;;;;;;;;;;
2024/02/03 17:47:19;;;;;;;55.58;25.40;;;;;;;6.11;64.22;99727.75;6199568;23;20039;-96
2024/02/03 17:49:47;;;;;;;40.80;20.95;;;;;;;6.10;63.75;99715.44;6172613;23;20007;-96
2024/02/03 17:52:21;;;;;;;33.95;20.25;;;;;;;6.24;64.06;99738.22;6197018;23;20027;-96
2024/02/03 17:54:55;;;;;;;41.17;22.25;;;;;;;6.22;64.11;99729.59;6197300;23;20030;-96
2024/02/03 17:57:27;;;;;;;51.70;26.85;;;;;;;6.26;64.02;99738.78;6165281;23;20005;-96
2024/02/03 17:59:55;;;;;;;58.63;29.83;;;;;;;6.28;63.91;99747.41;6117553;23;20036;-96
2024/02/03 18:02:21;;;;;;;52.03;27.15;;;;;;;6.26;64.17;99754.84;6117314;23;20000;-96
2024/02/03 18:04:57;;;;;;;49.67;26.15;;;;;;;6.24;63.82;99740.06;6142797;23;20007;-95
2024/02/03 18:07:23;;;;;;;38.42;21.08;;;;;;;6.26;64.23;99751.34;6143285;23;20048;-95
2024/02/03 18:09:51;;;;;;;35.17;22.30;;;;;;;6.29;63.89;99756.25;6136531;23;20004;-96
2024/02/03 18:12:25;;;;;;;39.72;23.58;;;;;;;6.37;63.95;99763.09;6139879;23;20035;-96
2024/02/03 18:14:51;;;;;;;37.72;21.05;;;;;;;6.21;64.24;99743.22;6119561;23;20001;-96
2024/02/03 18:17:17;;;;;;;17.40;9.73;;;;;;;6.15;62.75;99734.25;6114144;23;20001;-96
2024/02/03 18:19:53;;;;;;;11.40;6.95;;;;;;;6.22;62.62;99734.16;6139134;23;20061;-96
2024/02/03 18:22:18;;;;;;;9.65;5.53;;;;;;;6.45;61.91;99738.69;6119856;23;20009;-96
2024/02/03 18:24:47;;;;;;;9.73;5.47;;;;;;;6.64;61.16;99737.56;6141597;23;20005;-96
2024/02/03 18:27:13;;;;;;;9.32;5.22;;;;;;;6.78;61.18;99739.97;6118313;23;20008;-96
2024/02/03 18:30:19;;;;;;;8.00;4.88;;;;;;;6.92;60.28;99729.84;6170298;23;20005;-96
2024/02/03 18:32:45;;;;;;;10.77;5.78;;;;;;;7.22;59.95;99754.56;6145452;23;20027;-96
2024/02/03 18:35:14;;;;;;;11.45;5.65;;;;;;;7.25;59.62;99746.06;6171377;23;20007;-96
2024/02/03 18:37:48;;;;;;;11.40;5.20;;;;;;;7.28;59.35;99742.91;6169626;23;20083;-96
2024/02/03 18:40:14;;;;;;;12.50;6.07;;;;;;;7.32;59.17;99737.88;6170054;23;20028;-96
2024/02/03 18:42:40;;;;;;;14.35;6.40;;;;;;;7.38;59.28;99731.56;6168338;23;20004;-96
2024/02/03 18:45:09;;;;;;;10.55;5.20;;;;;;;7.44;59.19;99741.31;6169720;23;20004;-96
2024/02/03 18:47:38;;;;;;;9.18;5.60;;;;;;;7.40;58.97;99744.72;6169997;23;20020;-96
2024/02/03 18:50:07;;;;;;;8.60;4.95;;;;;;;7.48;59.10;99758.56;6169376;23;19997;-96
2024/02/03 18:52:35;;;;;;;15.85;7.97;;;;;;;7.46;58.87;99749.13;6167819;23;20032;-96
2024/02/03 18:55:04;;;;;;;14.35;7.57;;;;;;;7.40;58.89;99742.84;6168933;23;20013;-96
2024/02/03 18:57:30;;;;;;;12.45;7.15;;;;;;;7.33;58.75;99738.72;6168137;23;20011;-96
2024/02/03 18:59:55;;;;;;;12.18;8.00;;;;;;;7.23;59.30;99737.44;6168042;23;20444;-96
2024/02/03 19:02:21;;;;;;;10.82;7.80;;;;;;;7.26;59.55;99747.69;6169314;23;20005;-96
2024/02/03 19:04:50;;;;;;;11.68;7.38;;;;;;;7.20;60.08;99761.19;6167647;23;20036;-96
2024/02/03 19:07:20;;;;;;;7.43;5.43;;;;;;;7.26;59.55;99769.13;6170690;23;20104;-96
2024/02/03 19:09:48;;;;;;;9.45;6.03;;;;;;;7.26;59.72;99754.91;6169326;23;20000;-96
2024/02/03 19:12:16;;;;;;;10.18;6.38;;;;;;;7.18;60.08;99755.25;6168956;23;20024;-96
2024/02/03 19:14:50;;;;;;;9.30;6.43;;;;;;;7.23;60.09;99755.38;6170175;23;20005;-94
2024/02/03 19:17:16;;;;;;;10.50;6.95;;;;;;;7.21;60.25;99763.66;6169690;23;20398;-96
2024/02/03 19:19:42;;;;;;;10.30;6.38;;;;;;;7.13;59.83;99752.50;6168504;23;20098;-96
2024/02/03 19:22:15;;;;;;;14.10;7.57;;;;;;;7.21;60.32;99760.16;6168754;23;20004;-96
2024/02/03 19:24:51;;;;;;;;;;;;;;;;;;;;;
2024/02/03 19:27:17;;;;;;;13.65;7.82;;;;;;;7.20;60.10;99763.88;6195759;23;20035;-96
2024/02/03 19:29:43;;;;;;;12.65;8.20;;;;;;;7.11;60.29;99768.78;6169613;23;20001;-96
2024/02/03 19:32:09;;;;;;;14.68;8.18;;;;;;;7.03;60.53;99756.56;6169563;23;20000;-96
2024/02/03 19:34:34;;;;;;;16.27;8.60;;;;;;;7.02;60.52;99757.63;6168184;23;20454;-96
2024/02/03 19:37:00;;;;;;;16.30;10.30;;;;;;;6.98;60.51;99759.16;6169998;23;20004;-96
2024/02/03 19:39:29;;;;;;;12.90;8.85;;;;;;;6.90;60.88;99769.41;6169938;23;20005;-96
2024/02/03 19:42:06;;;;;;;18.27;12.63;;;;;;;6.85;61.09;99765.56;6195243;23;20000;-96
2024/02/03 19:44:34;;;;;;;15.98;10.18;;;;;;;6.80;60.89;99765.44;6195174;23;20088;-96
2024/02/03 21:12:43;;;;;;;38.75;17.23;;;;;;;5.46;68.05;99769.34;6219298;22;20454;-96
2024/02/03 21:15:09;;;;;;;42.00;18.77;;;;;;;5.51;67.31;99778.53;6143874;23;20008;-95
2024/02/03 21:17:35;;;;;;;36.63;17.02;;;;;;;5.52;67.51;99785.47;6166235;23;20008;-95
2024/02/03 21:20:25;;;;;;;33.63;17.00;;;;;;;5.70;68.10;99801.47;6142083;23;20013;-96
2024/02/03 21:22:51;;;;;;;37.58;16.23;;;;;;;5.65;68.49;99793.34;6134293;23;20325;-96
2024/02/03 21:25:23;;;;;;;30.35;16.00;;;;;;;5.57;67.89;99786.44;6108991;23;20013;-96
2024/02/03 21:27:53;;;;;;;34.17;16.70;;;;;;;5.49;67.79;99780.59;6110939;23;20005;-96
2024/02/03 21:30:21;;;;;;;30.60;15.55;;;;;;;5.50;67.89;99777.72;6109949;23;20088;-96
2024/02/03 21:32:47;;;;;;;31.15;15.63;;;;;;;5.56;67.46;99779.50;6107387;23;20054;-96
2024/02/03 21:35:13;;;;;;;32.33;14.75;;;;;;;5.47;67.74;99773.63;6085108;23;20017;-96
2024/02/03 21:37:42;;;;;;;30.92;15.07;;;;;;;5.46;67.78;99763.19;6107781;23;20014;-96
2024/02/03 21:40:09;;;;;;;29.10;14.65;;;;;;;5.50;67.54;99769.72;6108176;23;20006;-96
2024/02/03 21:42:35;;;;;;;23.20;13.90;;;;;;;5.53;67.66;99789.81;6109990;23;20001;-96
2024/02/03 21:45:03;;;;;;;22.25;13.57;;;;;;;5.48;67.71;99774.47;6107835;23;20100;-96
2024/02/03 21:47:29;;;;;;;22.15;13.18;;;;;;;5.49;67.69;99786.75;6108229;23;20076;-96
2024/02/03 21:49:56;;;;;;;18.88;12.30;;;;;;;5.47;68.35;99788.84;6084711;23;19997;-96
2024/02/03 21:52:25;;;;;;;22.20;11.73;;;;;;;5.59;68.06;99804.94;6083797;23;19997;-96
2024/02/03 21:54:51;;;;;;;23.73;13.43;;;;;;;5.50;68.53;99803.59;6143121;23;20005;-96
2024/02/03 21:57:20;;;;;;;21.83;13.07;;;;;;;5.40;68.15;99786.25;6143170;23;20355;-96
2024/02/03 21:59:52;;;;;;;21.20;12.90;;;;;;;5.36;68.41;99773.59;6169631;23;20451;-96
2024/02/03 22:02:23;;;;;;;22.35;12.77;;;;;;;5.34;68.49;99775.66;6145592;23;20001;-96
2024/02/03 22:04:52;;;;;;;28.23;14.82;;;;;;;5.34;68.24;99773.00;6170771;23;20005;-96
2024/02/03 22:07:18;;;;;;;24.85;14.80;;;;;;;5.44;68.22;99791.97;6170777;23;20082;-96
2024/02/03 22:09:48;;;;;;;23.52;13.68;;;;;;;5.31;68.67;99771.56;6146925;23;20044;-96
2024/02/03 22:12:20;;;;;;;23.70;14.10;;;;;;;5.33;68.48;99785.50;6171936;23;20016;-96
2024/02/03 22:14:49;;;;;;;22.63;14.43;;;;;;;5.23;68.17;99787.91;6148208;23;19996;-96
2024/02/03 22:17:15;;;;;;;27.40;15.68;;;;;;;5.16;68.80;99766.59;6143802;23;19996;-95
2024/02/03 22:19:41;;;;;;;23.73;12.93;;;;;;;5.18;69.03;99769.06;6166557;23;20012;-94
2024/02/03 22:22:07;;;;;;;18.65;12.32;;;;;;;5.28;68.88;99795.25;6168049;23;20087;-94
2024/02/03 22:24:34;;;;;;;23.92;12.95;;;;;;;5.20;68.90;99786.47;6144322;23;20423;-95
2024/02/03 22:27:00;;;;;;;24.30;13.88;;;;;;;5.18;69.21;99787.75;6144107;23;20400;-95
2024/02/03 22:29:26;;;;;;;19.85;12.57;;;;;;;5.29;69.50;99803.00;6167369;23;19996;-94
2024/02/03 22:31:53;;;;;;;22.15;13.07;;;;;;;5.16;70.13;99790.63;6144784;23;20062;-96
2024/02/03 22:34:20;;;;;;;22.13;13.30;;;;;;;5.12;69.76;99785.97;6167895;23;20012;-96
2024/02/03 22:36:46;;;;;;;19.25;12.05;;;;;;;5.13;68.96;99784.94;6167787;23;20317;-95
2024/02/03 22:39:13;;;;;;;19.67;12.25;;;;;;;5.12;70.08;99792.09;6167248;23;20094;-96
2024/02/03 22:41:39;;;;;;;21.38;12.23;;;;;;;5.14;69.47;99789.22;6167193;23;20074;-95
2024/02/03 22:44:06;;;;;;;19.88;12.13;;;;;;;5.20;69.78;99805.16;6141664;23;20012;-95
2024/02/03 22:46:31;;;;;;;20.23;11.23;;;;;;;5.09;70.60;99786.41;6166553;23;20403;-95
2024/02/03 22:48:57;;;;;;;17.85;10.43;;;;;;;5.21;70.34;99801.47;6166765;23;20062;-95
2024/02/03 22:51:25;;;;;;;20.10;11.40;;;;;;;5.11;70.69;99773.66;6167228;23;20007;-95
2024/02/03 22:53:55;;;;;;;16.23;10.93;;;;;;;5.18;69.76;99771.72;6168226;23;20378;-96
2024/02/03 22:56:23;;;;;;;18.48;11.18;;;;;;;5.23;69.57;99770.03;6192718;23;20079;-96